Saint Matthews, South Carolina
Current Conditions -  °F | °C
As of 1:53 PM on Friday 24 Oct 2014 (Local Time) from KOGB Reporting Station
Clear Clear  
Wind Chill: 70°   Ceiling: Unl
Heat Index: 70°   Visibility: 10mi
Dew Point: 46°   Wind: 5mph
Humidity: 42%   Direction: 270°W
Pressure: 30.02"   Gusts: NA
Location:  33.66°N, 80.78°W
Report Text: KOGB 241753Z AUTO 27004KT 10SM CLR 21/08 A3002 RMK AO2 SLP165 T02110078 10217 20083 58023
Loading
Personal Weather Stations






























Interactive Weather Map
Tropical Storm Tracking
New forecast layout! Learn more

10-Day Weather Forecast

Advertisements
Track Severe Weather on mobile